sensor_id;sensor_type;location;lat;lon;timestamp;pressure;altitude;pressure_sealevel;temperature;humidity
28312;BME280;15572;48.810;9.148;2024-02-16T00:01:20;97928.50;;;9.04;100.00
28312;BME280;15572;48.810;9.148;2024-02-16T00:06:17;97931.34;;;9.17;100.00
28312;BME280;15572;48.810;9.148;2024-02-16T00:11:14;97927.81;;;9.17;100.00
28312;BME280;15572;48.810;9.148;2024-02-16T00:16:10;97932.97;;;9.12;100.00
28312;BME280;15572;48.810;9.148;2024-02-16T00:21:07;97927.88;;;9.02;100.00
28312;BME280;15572;48.810;9.148;2024-02-16T00:26:05;97926.97;;;8.95;100.00
28312;BME280;15572;48.810;9.148;2024-02-16T00:31:02;97924.72;;;8.99;100.00
28312;BME280;15572;48.810;9.148;2024-02-16T00:36:00;97920.41;;;9.04;100.00
28312;BME280;15572;48.810;9.148;2024-02-16T00:40:57;97925.22;;;9.09;100.00
28312;BME280;15572;48.810;9.148;2024-02-16T00:45:55;97917.13;;;9.09;100.00
28312;BME280;15572;48.810;9.148;2024-02-16T00:50:51;97913.03;;;9.13;100.00
28312;BME280;15572;48.810;9.148;2024-02-16T00:55:48;97913.66;;;9.15;100.00
28312;BME280;15572;48.810;9.148;2024-02-16T01:00:44;97908.25;;;9.15;100.00
28312;BME280;15572;48.810;9.148;2024-02-16T01:05:42;97919.88;;;9.15;100.00
28312;BME280;15572;48.810;9.148;2024-02-16T01:10:38;97916.81;;;9.18;100.00
28312;BME280;15572;48.810;9.148;2024-02-16T01:15:35;97921.38;;;9.18;100.00
28312;BME280;15572;48.810;9.148;2024-02-16T01:20:32;97913.13;;;9.26;100.00
28312;BME280;15572;48.810;9.148;2024-02-16T01:25:30;97915.22;;;9.24;100.00
28312;BME280;15572;48.810;9.148;2024-02-16T01:30:26;97919.81;;;9.30;100.00
28312;BME280;15572;48.810;9.148;2024-02-16T01:35:22;97908.50;;;9.20;100.00
28312;BME280;15572;48.810;9.148;2024-02-16T01:40:19;97909.22;;;9.28;100.00
28312;BME280;15572;48.810;9.148;2024-02-16T01:45:17;97915.31;;;9.37;100.00
28312;BME280;15572;48.810;9.148;2024-02-16T01:50:14;97902.03;;;9.42;100.00
28312;BME280;15572;48.810;9.148;2024-02-16T01:55:11;97908.72;;;9.46;100.00
28312;BME280;15572;48.810;9.148;2024-02-16T02:00:09;97904.16;;;9.47;100.00
28312;BME280;15572;48.810;9.148;2024-02-16T02:05:07;97897.47;;;9.43;100.00
28312;BME280;15572;48.810;9.148;2024-02-16T02:10:04;97902.28;;;9.47;100.00
28312;BME280;15572;48.810;9.148;2024-02-16T02:15:00;97890.38;;;9.42;100.00
28312;BME280;15572;48.810;9.148;2024-02-16T02:19:58;97888.00;;;9.53;100.00
28312;BME280;15572;48.810;9.148;2024-02-16T02:24:56;97887.34;;;9.51;100.00
28312;BME280;15572;48.810;9.148;2024-02-16T02:29:52;97892.13;;;9.49;100.00
28312;BME280;15572;48.810;9.148;2024-02-16T02:34:49;97878.66;;;9.56;100.00
28312;BME280;15572;48.810;9.148;2024-02-16T02:39:45;97882.19;;;9.56;100.00
28312;BME280;15572;48.810;9.148;2024-02-16T02:44:44;97881.38;;;9.62;100.00
28312;BME280;15572;48.810;9.148;2024-02-16T02:49:45;97878.44;;;9.57;100.00
28312;BME280;15572;48.810;9.148;2024-02-16T02:54:41;97866.00;;;9.63;100.00
28312;BME280;15572;48.810;9.148;2024-02-16T02:59:37;97866.41;;;9.60;100.00
28312;BME280;15572;48.810;9.148;2024-02-16T03:04:36;97860.19;;;9.59;100.00
28312;BME280;15572;48.810;9.148;2024-02-16T03:09:32;97855.75;;;9.52;100.00
28312;BME280;15572;48.810;9.148;2024-02-16T03:14:28;97847.44;;;9.53;100.00
28312;BME280;15572;48.810;9.148;2024-02-16T03:19:25;97846.63;;;9.53;100.00
28312;BME280;15572;48.810;9.148;2024-02-16T03:24:22;97853.47;;;9.49;100.00
28312;BME280;15572;48.810;9.148;2024-02-16T03:29:19;97868.22;;;9.53;100.00
28312;BME280;15572;48.810;9.148;2024-02-16T03:34:15;97866.19;;;9.55;100.00
28312;BME280;15572;48.810;9.148;2024-02-16T03:39:12;97866.53;;;9.45;100.00
28312;BME280;15572;48.810;9.148;2024-02-16T03:44:09;97865.41;;;9.33;100.00
28312;BME280;15572;48.810;9.148;2024-02-16T03:49:06;97870.34;;;9.29;100.00
28312;BME280;15572;48.810;9.148;2024-02-16T03:54:03;97869.06;;;9.25;100.00
28312;BME280;15572;48.810;9.148;2024-02-16T03:59:00;97876.16;;;9.26;100.00
28312;BME280;15572;48.810;9.148;2024-02-16T04:03:57;97880.53;;;9.27;100.00
28312;BME280;15572;48.810;9.148;2024-02-16T04:08:54;97879.28;;;9.30;100.00
28312;BME280;15572;48.810;9.148;2024-02-16T04:13:51;97877.03;;;9.34;100.00
28312;BME280;15572;48.810;9.148;2024-02-16T04:18:47;97871.41;;;9.35;100.00
28312;BME280;15572;48.810;9.148;2024-02-16T04:23:45;97880.00;;;9.39;100.00
28312;BME280;15572;48.810;9.148;2024-02-16T04:28:41;97887.06;;;9.40;100.00
28312;BME280;15572;48.810;9.148;2024-02-16T04:33:38;97886.66;;;9.43;100.00
28312;BME280;15572;48.810;9.148;2024-02-16T04:38:34;97885.63;;;9.44;100.00
28312;BME280;15572;48.810;9.148;2024-02-16T04:43:32;97894.78;;;9.43;100.00
28312;BME280;15572;48.810;9.148;2024-02-16T04:48:28;97894.13;;;9.41;100.00
28312;BME280;15572;48.810;9.148;2024-02-16T04:53:26;97886.66;;;9.43;100.00
28312;BME280;15572;48.810;9.148;2024-02-16T04:58:22;97895.41;;;9.45;100.00
28312;BME280;15572;48.810;9.148;2024-02-16T05:03:20;97895.00;;;9.48;100.00
28312;BME280;15572;48.810;9.148;2024-02-16T05:08:16;97889.19;;;9.44;100.00
28312;BME280;15572;48.810;9.148;2024-02-16T05:13:13;97893.75;;;9.44;100.00
28312;BME280;15572;48.810;9.148;2024-02-16T05:18:09;97903.91;;;9.42;100.00
28312;BME280;15572;48.810;9.148;2024-02-16T05:23:09;97910.72;;;9.38;100.00
28312;BME280;15572;48.810;9.148;2024-02-16T05:28:05;97910.72;;;9.38;100.00
28312;BME280;15572;48.810;9.148;2024-02-16T05:33:02;97913.69;;;9.43;100.00
28312;BME280;15572;48.810;9.148;2024-02-16T05:37:59;97922.19;;;9.40;100.00
28312;BME280;15572;48.810;9.148;2024-02-16T05:43:03;97915.94;;;9.39;100.00
28312;BME280;15572;48.810;9.148;2024-02-16T05:48:00;97915.69;;;9.34;100.00
28312;BME280;15572;48.810;9.148;2024-02-16T05:52:56;97922.31;;;9.32;100.00
28312;BME280;15572;48.810;9.148;2024-02-16T05:57:52;97923.56;;;9.29;100.00
28312;BME280;15572;48.810;9.148;2024-02-16T06:02:51;97927.66;;;9.25;100.00
28312;BME280;15572;48.810;9.148;2024-02-16T06:07:47;97932.22;;;9.24;100.00
28312;BME280;15572;48.810;9.148;2024-02-16T06:12:44;97932.22;;;9.24;100.00
28312;BME280;15572;48.810;9.148;2024-02-16T06:17:40;97939.03;;;9.20;100.00
28312;BME280;15572;48.810;9.148;2024-02-16T06:22:38;97945.69;;;9.18;100.00
28312;BME280;15572;48.810;9.148;2024-02-16T06:27:34;97950.44;;;9.16;100.00
28312;BME280;15572;48.810;9.148;2024-02-16T06:32:31;97955.66;;;9.17;100.00
28312;BME280;15572;48.810;9.148;2024-02-16T06:37:27;97968.00;;;9.05;100.00
28312;BME280;15572;48.810;9.148;2024-02-16T06:42:25;97973.31;;;8.99;100.00
28312;BME280;15572;48.810;9.148;2024-02-16T06:47:21;97973.97;;;9.01;100.00
28312;BME280;15572;48.810;9.148;2024-02-16T06:52:19;97975.25;;;9.05;100.00
28312;BME280;15572;48.810;9.148;2024-02-16T06:57:16;97990.00;;;9.02;100.00
28312;BME280;15572;48.810;9.148;2024-02-16T07:02:13;97995.31;;;8.96;100.00
28312;BME280;15572;48.810;9.148;2024-02-16T07:07:11;98000.31;;;8.99;100.00
28312;BME280;15572;48.810;9.148;2024-02-16T07:12:08;98009.44;;;8.98;100.00
28312;BME280;15572;48.810;9.148;2024-02-16T07:17:04;98013.47;;;8.87;100.00
28312;BME280;15572;48.810;9.148;2024-02-16T07:22:05;98007.44;;;8.85;100.00
28312;BME280;15572;48.810;9.148;2024-02-16T07:27:02;98019.97;;;8.93;100.00
28312;BME280;15572;48.810;9.148;2024-02-16T07:31:59;98015.81;;;8.90;100.00
28312;BME280;15572;48.810;9.148;2024-02-16T07:36:55;98022.66;;;8.93;100.00
28312;BME280;15572;48.810;9.148;2024-02-16T07:41:53;98023.25;;;8.88;100.00
28312;BME280;15572;48.810;9.148;2024-02-16T07:46:49;98027.63;;;8.89;100.00
28312;BME280;15572;48.810;9.148;2024-02-16T07:51:47;98017.53;;;8.98;100.00
28312;BME280;15572;48.810;9.148;2024-02-16T07:56:43;98032.97;;;9.04;100.00
28312;BME280;15572;48.810;9.148;2024-02-16T08:01:42;98034.84;;;9.03;100.00
28312;BME280;15572;48.810;9.148;2024-02-16T08:06:39;98028.69;;;9.09;100.00
28312;BME280;15572;48.810;9.148;2024-02-16T08:11:36;98036.59;;;9.11;100.00
28312;BME280;15572;48.810;9.148;2024-02-16T08:16:32;98038.34;;;9.18;100.00
28312;BME280;15572;48.810;9.148;2024-02-16T08:21:30;98038.28;;;9.33;100.00
28312;BME280;15572;48.810;9.148;2024-02-16T08:26:27;98034.31;;;9.50;100.00
28312;BME280;15572;48.810;9.148;2024-02-16T08:31:23;98038.66;;;9.72;100.00
28312;BME280;15572;48.810;9.148;2024-02-16T08:36:20;98039.69;;;9.93;100.00
28312;BME280;15572;48.810;9.148;2024-02-16T08:41:24;98041.50;;;10.13;100.00
28312;BME280;15572;48.810;9.148;2024-02-16T08:46:22;98040.81;;;10.33;100.00
28312;BME280;15572;48.810;9.148;2024-02-16T08:51:18;98046.59;;;10.58;100.00
28312;BME280;15572;48.810;9.148;2024-02-16T08:56:15;98055.66;;;10.78;100.00
28312;BME280;15572;48.810;9.148;2024-02-16T09:01:13;98040.13;;;11.06;100.00
28312;BME280;15572;48.810;9.148;2024-02-16T09:06:10;98056.06;;;11.35;100.00
28312;BME280;15572;48.810;9.148;2024-02-16T09:11:08;98049.25;;;11.72;100.00
28312;BME280;15572;48.810;9.148;2024-02-16T09:16:04;98054.72;;;12.05;100.00
28312;BME280;15572;48.810;9.148;2024-02-16T09:21:02;98048.00;;;12.34;100.00
28312;BME280;15572;48.810;9.148;2024-02-16T09:25:59;98048.75;;;12.68;90.52
28312;BME280;15572;48.810;9.148;2024-02-16T09:30:56;98063.09;;;13.01;85.78
28312;BME280;15572;48.810;9.148;2024-02-16T09:35:52;98058.59;;;13.26;83.62
28312;BME280;15572;48.810;9.148;2024-02-16T09:40:50;98068.59;;;13.39;84.83
28312;BME280;15572;48.810;9.148;2024-02-16T09:45:47;98082.09;;;13.52;83.01
28312;BME280;15572;48.810;9.148;2024-02-16T09:50:45;98090.56;;;13.69;84.39
28312;BME280;15572;48.810;9.148;2024-02-16T09:55:42;98095.06;;;13.88;84.23
28312;BME280;15572;48.810;9.148;2024-02-16T10:00:40;98096.03;;;14.25;77.89
28312;BME280;15572;48.810;9.148;2024-02-16T10:05:37;98098.88;;;14.61;72.83
28312;BME280;15572;48.810;9.148;2024-02-16T10:10:33;98097.41;;;15.02;70.35
28312;BME280;15572;48.810;9.148;2024-02-16T10:15:32;98103.66;;;15.39;69.41
28312;BME280;15572;48.810;9.148;2024-02-16T10:20:31;98110.81;;;15.58;64.71
28312;BME280;15572;48.810;9.148;2024-02-16T10:25:28;98107.78;;;15.78;61.41
28312;BME280;15572;48.810;9.148;2024-02-16T10:30:26;98113.13;;;16.03;60.92
28312;BME280;15572;48.810;9.148;2024-02-16T10:35:25;98111.34;;;16.20;57.81
28312;BME280;15572;48.810;9.148;2024-02-16T10:40:24;98119.00;;;16.41;58.57
28312;BME280;15572;48.810;9.148;2024-02-16T10:45:21;98122.00;;;16.63;59.16
28312;BME280;15572;48.810;9.148;2024-02-16T10:50:18;98116.66;;;16.68;56.79
28312;BME280;15572;48.810;9.148;2024-02-16T10:55:14;98132.34;;;16.72;56.27
28312;BME280;15572;48.810;9.148;2024-02-16T11:00:15;98136.75;;;16.73;57.17
28312;BME280;15572;48.810;9.148;2024-02-16T11:05:12;98128.22;;;16.70;55.36
28312;BME280;15572;48.810;9.148;2024-02-16T11:10:11;98135.94;;;16.84;55.83
28312;BME280;15572;48.810;9.148;2024-02-16T11:15:08;98131.63;;;16.89;55.56
28312;BME280;15572;48.810;9.148;2024-02-16T11:20:07;98138.53;;;17.03;55.29
28312;BME280;15572;48.810;9.148;2024-02-16T11:25:05;98120.34;;;17.08;55.55
28312;BME280;15572;48.810;9.148;2024-02-16T11:30:03;98124.16;;;17.07;56.12
28312;BME280;15572;48.810;9.148;2024-02-16T11:35:06;98116.66;;;17.03;56.87
28312;BME280;15572;48.810;9.148;2024-02-16T11:40:04;98123.44;;;17.00;57.57
28312;BME280;15572;48.810;9.148;2024-02-16T11:45:03;98115.34;;;17.05;57.90
28312;BME280;15572;48.810;9.148;2024-02-16T11:50:03;98127.34;;;17.16;57.75
28312;BME280;15572;48.810;9.148;2024-02-16T11:55:01;98128.91;;;17.12;56.71
28312;BME280;15572;48.810;9.148;2024-02-16T11:59:59;98110.69;;;17.17;57.08
28312;BME280;15572;48.810;9.148;2024-02-16T12:04:59;98116.25;;;17.34;57.46
28312;BME280;15572;48.810;9.148;2024-02-16T12:09:57;98115.03;;;17.42;57.82
28312;BME280;15572;48.810;9.148;2024-02-16T12:14:55;98126.59;;;17.32;57.27
28312;BME280;15572;48.810;9.148;2024-02-16T12:19:52;98121.22;;;17.37;58.23
28312;BME280;15572;48.810;9.148;2024-02-16T12:24:49;98119.22;;;17.33;58.78
28312;BME280;15572;48.810;9.148;2024-02-16T12:29:46;98124.13;;;17.31;59.42
28312;BME280;15572;48.810;9.148;2024-02-16T12:34:44;98127.56;;;17.26;59.96
28312;BME280;15572;48.810;9.148;2024-02-16T12:39:40;98120.78;;;17.29;60.46
28312;BME280;15572;48.810;9.148;2024-02-16T12:44:36;98127.78;;;17.36;61.00
28312;BME280;15572;48.810;9.148;2024-02-16T12:49:33;98129.81;;;17.41;61.11
28312;BME280;15572;48.810;9.148;2024-02-16T12:54:32;98133.00;;;17.38;62.49
28312;BME280;15572;48.810;9.148;2024-02-16T12:59:29;98131.03;;;17.21;62.91
28312;BME280;15572;48.810;9.148;2024-02-16T13:04:26;98135.94;;;17.08;64.32
28312;BME280;15572;48.810;9.148;2024-02-16T13:09:26;98134.47;;;17.17;64.60
28312;BME280;15572;48.810;9.148;2024-02-16T13:14:25;98134.44;;;17.40;64.24
28312;BME280;15572;48.810;9.148;2024-02-16T13:19:22;98123.28;;;17.30;64.32
28312;BME280;15572;48.810;9.148;2024-02-16T13:24:19;98134.19;;;17.42;64.23
28312;BME280;15572;48.810;9.148;2024-02-16T13:29:15;98134.25;;;17.58;63.66
28312;BME280;15572;48.810;9.148;2024-02-16T13:34:13;98132.69;;;17.74;63.89
28312;BME280;15572;48.810;9.148;2024-02-16T13:39:09;98146.56;;;17.84;63.08
28312;BME280;15572;48.810;9.148;2024-02-16T13:44:06;98149.53;;;17.94;63.72
28312;BME280;15572;48.810;9.148;2024-02-16T13:49:03;98153.38;;;17.82;63.97
28312;BME280;15572;48.810;9.148;2024-02-16T13:54:01;98143.75;;;17.79;64.75
28312;BME280;15572;48.810;9.148;2024-02-16T13:58:57;98159.53;;;17.60;65.02
28312;BME280;15572;48.810;9.148;2024-02-16T14:03:54;98167.28;;;17.40;66.00
28312;BME280;15572;48.810;9.148;2024-02-16T14:08:51;98171.22;;;17.21;67.50
28312;BME280;15572;48.810;9.148;2024-02-16T14:13:49;98167.78;;;17.02;68.67
28312;BME280;15572;48.810;9.148;2024-02-16T14:18:45;98175.75;;;16.92;69.78
28312;BME280;15572;48.810;9.148;2024-02-16T14:23:43;98172.66;;;16.89;70.43
28312;BME280;15572;48.810;9.148;2024-02-16T14:28:40;98183.59;;;16.89;70.79
28312;BME280;15572;48.810;9.148;2024-02-16T14:33:37;98181.81;;;16.82;71.21
28312;BME280;15572;48.810;9.148;2024-02-16T14:38:34;98181.44;;;16.79;70.82
28312;BME280;15572;48.810;9.148;2024-02-16T14:43:30;98188.94;;;16.72;71.76
28312;BME280;15572;48.810;9.148;2024-02-16T14:48:27;98197.34;;;16.59;73.05
28312;BME280;15572;48.810;9.148;2024-02-16T14:53:24;98194.22;;;16.55;73.36
28312;BME280;15572;48.810;9.148;2024-02-16T14:58:21;98202.03;;;16.52;74.38
28312;BME280;15572;48.810;9.148;2024-02-16T15:03:17;98199.78;;;16.49;75.38
28312;BME280;15572;48.810;9.148;2024-02-16T15:08:14;98203.44;;;16.42;76.60
28312;BME280;15572;48.810;9.148;2024-02-16T15:13:12;98196.53;;;16.40;77.99
28312;BME280;15572;48.810;9.148;2024-02-16T15:18:08;98203.34;;;16.49;77.85
28312;BME280;15572;48.810;9.148;2024-02-16T15:23:05;98208.09;;;16.42;78.38
28312;BME280;15572;48.810;9.148;2024-02-16T15:28:01;98218.53;;;16.33;79.29
28312;BME280;15572;48.810;9.148;2024-02-16T15:33:01;98221.22;;;16.22;80.36
28312;BME280;15572;48.810;9.148;2024-02-16T15:37:58;98229.84;;;16.19;80.82
28312;BME280;15572;48.810;9.148;2024-02-16T15:43:01;98238.59;;;16.09;81.73
28312;BME280;15572;48.810;9.148;2024-02-16T15:47:57;98239.63;;;15.96;82.40
28312;BME280;15572;48.810;9.148;2024-02-16T15:52:55;98244.53;;;15.88;83.18
28312;BME280;15572;48.810;9.148;2024-02-16T15:57:52;98249.84;;;15.83;84.16
28312;BME280;15572;48.810;9.148;2024-02-16T16:02:48;98261.78;;;15.70;85.56
28312;BME280;15572;48.810;9.148;2024-02-16T16:07:45;98272.28;;;15.67;85.67
28312;BME280;15572;48.810;9.148;2024-02-16T16:12:43;98272.97;;;15.62;85.99
28312;BME280;15572;48.810;9.148;2024-02-16T16:17:39;98270.78;;;15.52;87.05
28312;BME280;15572;48.810;9.148;2024-02-16T16:22:36;98281.09;;;15.44;87.62
28312;BME280;15572;48.810;9.148;2024-02-16T16:27:32;98284.75;;;15.38;88.86
28312;BME280;15572;48.810;9.148;2024-02-16T16:32:30;98287.97;;;15.28;90.51
28312;BME280;15572;48.810;9.148;2024-02-16T16:37:26;98296.66;;;15.18;91.47
28312;BME280;15572;48.810;9.148;2024-02-16T16:42:23;98300.75;;;15.09;92.83
28312;BME280;15572;48.810;9.148;2024-02-16T16:47:19;98311.31;;;14.99;93.17
28312;BME280;15572;48.810;9.148;2024-02-16T16:52:17;98322.94;;;14.88;94.98
28312;BME280;15572;48.810;9.148;2024-02-16T16:57:14;98333.28;;;14.80;95.90
28312;BME280;15572;48.810;9.148;2024-02-16T17:02:12;98343.41;;;14.66;97.84
28312;BME280;15572;48.810;9.148;2024-02-16T17:07:09;98352.47;;;14.53;98.47
28312;BME280;15572;48.810;9.148;2024-02-16T17:12:07;98361.13;;;14.44;100.00
28312;BME280;15572;48.810;9.148;2024-02-16T17:17:04;98370.78;;;14.33;100.00
28312;BME280;15572;48.810;9.148;2024-02-16T17:22:00;98372.09;;;14.24;100.00
28312;BME280;15572;48.810;9.148;2024-02-16T17:26:58;98379.66;;;14.15;100.00
28312;BME280;15572;48.810;9.148;2024-02-16T17:31:56;98385.53;;;14.06;100.00
28312;BME280;15572;48.810;9.148;2024-02-16T17:36:52;98401.28;;;13.97;100.00
28312;BME280;15572;48.810;9.148;2024-02-16T17:41:49;98407.56;;;13.84;100.00
28312;BME280;15572;48.810;9.148;2024-02-16T17:46:45;98407.81;;;13.70;100.00
28312;BME280;15572;48.810;9.148;2024-02-16T17:51:43;98415.13;;;13.63;100.00
28312;BME280;15572;48.810;9.148;2024-02-16T17:56:39;98419.97;;;13.54;100.00
28312;BME280;15572;48.810;9.148;2024-02-16T18:01:36;98434.81;;;13.38;100.00
28312;BME280;15572;48.810;9.148;2024-02-16T18:06:37;98428.31;;;13.26;100.00
28312;BME280;15572;48.810;9.148;2024-02-16T18:11:38;98444.41;;;13.21;100.00
28312;BME280;15572;48.810;9.148;2024-02-16T18:16:34;98441.44;;;13.09;100.00
28312;BME280;15572;48.810;9.148;2024-02-16T18:21:31;98450.63;;;13.02;100.00
28312;BME280;15572;48.810;9.148;2024-02-16T18:26:27;98454.81;;;12.98;100.00
28312;BME280;15572;48.810;9.148;2024-02-16T18:31:27;98457.06;;;12.88;100.00
28312;BME280;15572;48.810;9.148;2024-02-16T18:36:25;98461.84;;;12.79;100.00
28312;BME280;15572;48.810;9.148;2024-02-16T18:41:22;98468.28;;;12.72;100.00
28312;BME280;15572;48.810;9.148;2024-02-16T18:46:18;98473.09;;;12.70;100.00
28312;BME280;15572;48.810;9.148;2024-02-16T18:51:17;98471.44;;;12.69;100.00
28312;BME280;15572;48.810;9.148;2024-02-16T18:56:14;98474.75;;;12.64;100.00
28312;BME280;15572;48.810;9.148;2024-02-16T19:01:10;98483.50;;;12.59;100.00
28312;BME280;15572;48.810;9.148;2024-02-16T19:06:07;98484.94;;;12.55;100.00
28312;BME280;15572;48.810;9.148;2024-02-16T19:11:05;98483.66;;;12.51;100.00
28312;BME280;15572;48.810;9.148;2024-02-16T19:16:01;98488.69;;;12.48;100.00
28312;BME280;15572;48.810;9.148;2024-02-16T19:20:59;98491.59;;;12.46;100.00
28312;BME280;15572;48.810;9.148;2024-02-16T19:25:55;98498.69;;;12.47;100.00
28312;BME280;15572;48.810;9.148;2024-02-16T19:30:53;98502.69;;;12.51;100.00
28312;BME280;15572;48.810;9.148;2024-02-16T19:35:50;98502.91;;;12.56;100.00
28312;BME280;15572;48.810;9.148;2024-02-16T19:40:47;98513.81;;;12.63;100.00
28312;BME280;15572;48.810;9.148;2024-02-16T19:45:43;98526.78;;;12.68;100.00
28312;BME280;15572;48.810;9.148;2024-02-16T19:50:42;98528.00;;;12.58;100.00
28312;BME280;15572;48.810;9.148;2024-02-16T19:55:39;98533.44;;;12.58;100.00
28312;BME280;15572;48.810;9.148;2024-02-16T20:00:35;98535.13;;;12.59;100.00
28312;BME280;15572;48.810;9.148;2024-02-16T20:05:32;98540.09;;;12.56;100.00
28312;BME280;15572;48.810;9.148;2024-02-16T20:10:30;98545.94;;;12.53;100.00
28312;BME280;15572;48.810;9.148;2024-02-16T20:15:27;98550.28;;;12.47;100.00
28312;BME280;15572;48.810;9.148;2024-02-16T20:20:25;98559.28;;;12.20;100.00
28312;BME280;15572;48.810;9.148;2024-02-16T20:25:21;98559.16;;;12.00;100.00
28312;BME280;15572;48.810;9.148;2024-02-16T20:30:19;98563.88;;;11.92;100.00
28312;BME280;15572;48.810;9.148;2024-02-16T20:35:16;98571.97;;;11.85;100.00
28312;BME280;15572;48.810;9.148;2024-02-16T20:40:13;98575.66;;;11.77;100.00
28312;BME280;15572;48.810;9.148;2024-02-16T20:45:09;98578.25;;;11.71;100.00
28312;BME280;15572;48.810;9.148;2024-02-16T20:50:11;98577.38;;;11.64;100.00
28312;BME280;15572;48.810;9.148;2024-02-16T20:55:07;98588.22;;;11.64;100.00
28312;BME280;15572;48.810;9.148;2024-02-16T21:00:05;98600.94;;;11.63;100.00
28312;BME280;15572;48.810;9.148;2024-02-16T21:05:07;98606.75;;;11.60;100.00
28312;BME280;15572;48.810;9.148;2024-02-16T21:10:06;98609.84;;;11.57;100.00
28312;BME280;15572;48.810;9.148;2024-02-16T21:15:03;98619.41;;;11.53;100.00
28312;BME280;15572;48.810;9.148;2024-02-16T21:20:00;98620.81;;;11.49;100.00
28312;BME280;15572;48.810;9.148;2024-02-16T21:24:56;98617.66;;;11.46;100.00
28312;BME280;15572;48.810;9.148;2024-02-16T21:29:54;98620.75;;;11.43;100.00
28312;BME280;15572;48.810;9.148;2024-02-16T21:34:50;98633.66;;;11.40;100.00
28312;BME280;15572;48.810;9.148;2024-02-16T21:39:47;98635.50;;;11.40;100.00
28312;BME280;15572;48.810;9.148;2024-02-16T21:44:44;98634.66;;;11.39;100.00
28312;BME280;15572;48.810;9.148;2024-02-16T21:49:42;98641.34;;;11.37;100.00
28312;BME280;15572;48.810;9.148;2024-02-16T21:54:38;98648.13;;;11.48;100.00
28312;BME280;15572;48.810;9.148;2024-02-16T21:59:35;98655.75;;;11.59;100.00
28312;BME280;15572;48.810;9.148;2024-02-16T22:04:31;98667.31;;;11.67;100.00
28312;BME280;15572;48.810;9.148;2024-02-16T22:09:29;98677.44;;;11.73;100.00
28312;BME280;15572;48.810;9.148;2024-02-16T22:14:26;98672.63;;;11.75;100.00
28312;BME280;15572;48.810;9.148;2024-02-16T22:19:22;98677.78;;;11.70;100.00
28312;BME280;15572;48.810;9.148;2024-02-16T22:24:21;98680.88;;;11.67;100.00
28312;BME280;15572;48.810;9.148;2024-02-16T22:29:19;98681.72;;;11.68;100.00
28312;BME280;15572;48.810;9.148;2024-02-16T22:34:15;98692.38;;;11.69;100.00
28312;BME280;15572;48.810;9.148;2024-02-16T22:39:12;98698.09;;;11.74;100.00
28312;BME280;15572;48.810;9.148;2024-02-16T22:44:08;98695.66;;;11.79;100.00
28312;BME280;15572;48.810;9.148;2024-02-16T22:49:06;98694.22;;;11.84;100.00
28312;BME280;15572;48.810;9.148;2024-02-16T22:54:03;98693.00;;;11.86;100.00
28312;BME280;15572;48.810;9.148;2024-02-16T22:58:59;98705.34;;;11.89;100.00
28312;BME280;15572;48.810;9.148;2024-02-16T23:03:56;98706.00;;;11.91;100.00
28312;BME280;15572;48.810;9.148;2024-02-16T23:08:53;98707.88;;;11.90;100.00
28312;BME280;15572;48.810;9.148;2024-02-16T23:13:50;98712.47;;;11.90;100.00
28312;BME280;15572;48.810;9.148;2024-02-16T23:18:47;98713.47;;;11.89;100.00
28312;BME280;15572;48.810;9.148;2024-02-16T23:23:43;98719.41;;;11.77;100.00
28312;BME280;15572;48.810;9.148;2024-02-16T23:28:41;98720.66;;;11.75;100.00
28312;BME280;15572;48.810;9.148;2024-02-16T23:33:37;98717.94;;;11.75;100.00
28312;BME280;15572;48.810;9.148;2024-02-16T23:38:33;98734.47;;;11.80;100.00
28312;BME280;15572;48.810;9.148;2024-02-16T23:43:30;98726.25;;;11.73;100.00
28312;BME280;15572;48.810;9.148;2024-02-16T23:48:28;98735.78;;;11.69;100.00
28312;BME280;15572;48.810;9.148;2024-02-16T23:53:24;98733.25;;;11.68;100.00
28312;BME280;15572;48.810;9.148;2024-02-16T23:58:21;98745.25;;;11.73;100.00
